sensor_id;sensor_type;location;lat;lon;timestamp;P1;durP1;ratioP1;P2;durP2;ratioP2
22490;SDS011;11412;50.802;4.350;2022-11-20T00:00:03;68.38;;;33.80;;
22490;SDS011;11412;50.802;4.350;2022-11-20T00:02:29;63.85;;;33.70;;
22490;SDS011;11412;50.802;4.350;2022-11-20T00:04:55;57.30;;;31.40;;
22490;SDS011;11412;50.802;4.350;2022-11-20T00:07:20;56.38;;;30.90;;
22490;SDS011;11412;50.802;4.350;2022-11-20T00:09:46;56.05;;;31.65;;
22490;SDS011;11412;50.802;4.350;2022-11-20T00:12:11;55.88;;;31.70;;
22490;SDS011;11412;50.802;4.350;2022-11-20T00:14:37;59.17;;;31.05;;
22490;SDS011;11412;50.802;4.350;2022-11-20T00:17:03;51.10;;;30.75;;
22490;SDS011;11412;50.802;4.350;2022-11-20T00:19:28;52.08;;;29.70;;
22490;SDS011;11412;50.802;4.350;2022-11-20T00:21:54;56.00;;;30.73;;
22490;SDS011;11412;50.802;4.350;2022-11-20T00:24:20;56.03;;;30.50;;
22490;SDS011;11412;50.802;4.350;2022-11-20T00:26:46;52.90;;;31.20;;
22490;SDS011;11412;50.802;4.350;2022-11-20T00:29:11;51.30;;;29.45;;
22490;SDS011;11412;50.802;4.350;2022-11-20T00:31:37;50.85;;;30.00;;
22490;SDS011;11412;50.802;4.350;2022-11-20T00:34:03;50.25;;;30.48;;
22490;SDS011;11412;50.802;4.350;2022-11-20T00:36:31;50.63;;;28.85;;
22490;SDS011;11412;50.802;4.350;2022-11-20T00:38:58;51.35;;;30.30;;
22490;SDS011;11412;50.802;4.350;2022-11-20T00:41:25;51.00;;;29.95;;
22490;SDS011;11412;50.802;4.350;2022-11-20T00:43:53;55.05;;;30.85;;
22490;SDS011;11412;50.802;4.350;2022-11-20T00:46:19;46.30;;;29.20;;
22490;SDS011;11412;50.802;4.350;2022-11-20T00:48:47;45.60;;;28.90;;
22490;SDS011;11412;50.802;4.350;2022-11-20T00:51:14;46.42;;;28.90;;
22490;SDS011;11412;50.802;4.350;2022-11-20T00:53:41;45.35;;;28.23;;
22490;SDS011;11412;50.802;4.350;2022-11-20T00:56:08;49.40;;;28.13;;
22490;SDS011;11412;50.802;4.350;2022-11-20T00:58:38;46.78;;;29.40;;
22490;SDS011;11412;50.802;4.350;2022-11-20T01:01:11;47.83;;;30.05;;
22490;SDS011;11412;50.802;4.350;2022-11-20T01:03:43;44.83;;;28.98;;
22490;SDS011;11412;50.802;4.350;2022-11-20T01:08:44;47.97;;;28.35;;
22490;SDS011;11412;50.802;4.350;2022-11-20T01:11:12;50.17;;;27.73;;
22490;SDS011;11412;50.802;4.350;2022-11-20T01:13:39;43.78;;;27.30;;
22490;SDS011;11412;50.802;4.350;2022-11-20T01:18:32;48.13;;;28.80;;
22490;SDS011;11412;50.802;4.350;2022-11-20T01:21:01;49.45;;;29.20;;
22490;SDS011;11412;50.802;4.350;2022-11-20T01:23:38;47.67;;;29.25;;
22490;SDS011;11412;50.802;4.350;2022-11-20T01:26:24;44.03;;;27.67;;
22490;SDS011;11412;50.802;4.350;2022-11-20T01:28:53;47.05;;;28.38;;
22490;SDS011;11412;50.802;4.350;2022-11-20T01:31:20;49.28;;;28.17;;
22490;SDS011;11412;50.802;4.350;2022-11-20T01:33:48;45.28;;;27.73;;
22490;SDS011;11412;50.802;4.350;2022-11-20T01:36:17;46.28;;;26.85;;
22490;SDS011;11412;50.802;4.350;2022-11-20T01:38:44;44.95;;;27.60;;
22490;SDS011;11412;50.802;4.350;2022-11-20T01:41:11;44.60;;;26.48;;
22490;SDS011;11412;50.802;4.350;2022-11-20T01:43:57;47.60;;;26.52;;
22490;SDS011;11412;50.802;4.350;2022-11-20T01:46:23;44.40;;;26.92;;
22490;SDS011;11412;50.802;4.350;2022-11-20T01:48:56;45.78;;;27.85;;
22490;SDS011;11412;50.802;4.350;2022-11-20T01:51:51;48.75;;;28.98;;
22490;SDS011;11412;50.802;4.350;2022-11-20T01:54:40;45.63;;;28.35;;
22490;SDS011;11412;50.802;4.350;2022-11-20T01:57:13;46.20;;;27.83;;
22490;SDS011;11412;50.802;4.350;2022-11-20T01:59:44;41.92;;;26.48;;
22490;SDS011;11412;50.802;4.350;2022-11-20T02:02:16;45.45;;;27.40;;
22490;SDS011;11412;50.802;4.350;2022-11-20T02:04:42;46.13;;;27.77;;
22490;SDS011;11412;50.802;4.350;2022-11-20T02:07:09;48.60;;;28.27;;
22490;SDS011;11412;50.802;4.350;2022-11-20T02:09:35;48.83;;;27.63;;
22490;SDS011;11412;50.802;4.350;2022-11-20T02:12:01;47.55;;;28.98;;
22490;SDS011;11412;50.802;4.350;2022-11-20T02:14:28;48.15;;;27.58;;
22490;SDS011;11412;50.802;4.350;2022-11-20T02:16:54;43.63;;;26.48;;
22490;SDS011;11412;50.802;4.350;2022-11-20T02:21:59;49.65;;;28.52;;
22490;SDS011;11412;50.802;4.350;2022-11-20T02:24:31;55.30;;;28.85;;
22490;SDS011;11412;50.802;4.350;2022-11-20T02:27:01;47.20;;;27.35;;
22490;SDS011;11412;50.802;4.350;2022-11-20T02:29:34;47.45;;;26.92;;
22490;SDS011;11412;50.802;4.350;2022-11-20T02:32:16;48.50;;;26.35;;
22490;SDS011;11412;50.802;4.350;2022-11-20T02:34:46;45.97;;;27.40;;
22490;SDS011;11412;50.802;4.350;2022-11-20T02:37:11;51.42;;;28.95;;
22490;SDS011;11412;50.802;4.350;2022-11-20T02:39:38;49.83;;;29.10;;
22490;SDS011;11412;50.802;4.350;2022-11-20T02:42:05;51.17;;;28.50;;
22490;SDS011;11412;50.802;4.350;2022-11-20T02:44:31;48.05;;;28.77;;
22490;SDS011;11412;50.802;4.350;2022-11-20T02:46:57;49.13;;;27.00;;
22490;SDS011;11412;50.802;4.350;2022-11-20T02:49:24;49.38;;;27.45;;
22490;SDS011;11412;50.802;4.350;2022-11-20T02:51:49;50.45;;;27.50;;
22490;SDS011;11412;50.802;4.350;2022-11-20T02:54:15;55.20;;;28.35;;
22490;SDS011;11412;50.802;4.350;2022-11-20T02:56:41;50.05;;;27.35;;
22490;SDS011;11412;50.802;4.350;2022-11-20T02:59:06;44.97;;;25.80;;
22490;SDS011;11412;50.802;4.350;2022-11-20T03:01:32;41.92;;;24.92;;
22490;SDS011;11412;50.802;4.350;2022-11-20T03:03:58;45.35;;;25.13;;
22490;SDS011;11412;50.802;4.350;2022-11-20T03:06:23;44.97;;;24.80;;
22490;SDS011;11412;50.802;4.350;2022-11-20T03:08:49;44.70;;;25.40;;
22490;SDS011;11412;50.802;4.350;2022-11-20T03:11:15;46.33;;;25.55;;
22490;SDS011;11412;50.802;4.350;2022-11-20T03:13:40;48.60;;;26.73;;
22490;SDS011;11412;50.802;4.350;2022-11-20T03:16:10;43.20;;;24.65;;
22490;SDS011;11412;50.802;4.350;2022-11-20T03:18:37;44.10;;;25.10;;
22490;SDS011;11412;50.802;4.350;2022-11-20T03:21:04;44.05;;;25.30;;
22490;SDS011;11412;50.802;4.350;2022-11-20T03:23:30;41.70;;;24.98;;
22490;SDS011;11412;50.802;4.350;2022-11-20T03:26:19;44.08;;;24.52;;
22490;SDS011;11412;50.802;4.350;2022-11-20T03:29:02;42.83;;;24.98;;
22490;SDS011;11412;50.802;4.350;2022-11-20T03:31:30;40.97;;;23.85;;
22490;SDS011;11412;50.802;4.350;2022-11-20T03:34:01;44.55;;;23.45;;
22490;SDS011;11412;50.802;4.350;2022-11-20T03:36:28;42.00;;;23.65;;
22490;SDS011;11412;50.802;4.350;2022-11-20T03:38:55;37.95;;;23.70;;
22490;SDS011;11412;50.802;4.350;2022-11-20T03:41:29;43.08;;;24.42;;
22490;SDS011;11412;50.802;4.350;2022-11-20T03:46:24;38.60;;;23.55;;
22490;SDS011;11412;50.802;4.350;2022-11-20T03:48:50;40.88;;;23.98;;
22490;SDS011;11412;50.802;4.350;2022-11-20T03:51:18;40.78;;;23.98;;
22490;SDS011;11412;50.802;4.350;2022-11-20T03:53:44;41.97;;;23.88;;
22490;SDS011;11412;50.802;4.350;2022-11-20T03:56:12;39.10;;;24.73;;
22490;SDS011;11412;50.802;4.350;2022-11-20T03:58:39;40.88;;;23.55;;
22490;SDS011;11412;50.802;4.350;2022-11-20T04:03:35;42.97;;;23.83;;
22490;SDS011;11412;50.802;4.350;2022-11-20T04:06:09;41.25;;;23.80;;
22490;SDS011;11412;50.802;4.350;2022-11-20T04:11:09;41.97;;;23.95;;
22490;SDS011;11412;50.802;4.350;2022-11-20T04:13:35;39.03;;;22.58;;
22490;SDS011;11412;50.802;4.350;2022-11-20T04:16:01;39.15;;;23.15;;
22490;SDS011;11412;50.802;4.350;2022-11-20T04:18:27;41.40;;;22.67;;
22490;SDS011;11412;50.802;4.350;2022-11-20T04:20:53;43.40;;;23.63;;
22490;SDS011;11412;50.802;4.350;2022-11-20T04:23:18;40.13;;;24.13;;
22490;SDS011;11412;50.802;4.350;2022-11-20T04:25:44;43.15;;;24.92;;
22490;SDS011;11412;50.802;4.350;2022-11-20T04:28:09;47.72;;;25.20;;
22490;SDS011;11412;50.802;4.350;2022-11-20T04:30:35;45.55;;;25.02;;
22490;SDS011;11412;50.802;4.350;2022-11-20T04:33:01;46.25;;;25.50;;
22490;SDS011;11412;50.802;4.350;2022-11-20T04:35:26;49.13;;;26.23;;
22490;SDS011;11412;50.802;4.350;2022-11-20T04:37:52;52.20;;;24.88;;
22490;SDS011;11412;50.802;4.350;2022-11-20T04:40:17;52.97;;;27.00;;
22490;SDS011;11412;50.802;4.350;2022-11-20T04:42:43;51.38;;;26.00;;
22490;SDS011;11412;50.802;4.350;2022-11-20T04:45:08;49.28;;;24.65;;
22490;SDS011;11412;50.802;4.350;2022-11-20T04:47:34;53.53;;;26.75;;
22490;SDS011;11412;50.802;4.350;2022-11-20T04:50:00;57.50;;;28.02;;
22490;SDS011;11412;50.802;4.350;2022-11-20T04:52:26;57.65;;;27.35;;
22490;SDS011;11412;50.802;4.350;2022-11-20T04:54:52;57.25;;;26.50;;
22490;SDS011;11412;50.802;4.350;2022-11-20T04:57:18;53.25;;;27.98;;
22490;SDS011;11412;50.802;4.350;2022-11-20T04:59:44;52.08;;;25.63;;
22490;SDS011;11412;50.802;4.350;2022-11-20T05:02:10;53.67;;;26.83;;
22490;SDS011;11412;50.802;4.350;2022-11-20T05:04:36;54.40;;;28.30;;
22490;SDS011;11412;50.802;4.350;2022-11-20T05:07:02;55.58;;;26.27;;
22490;SDS011;11412;50.802;4.350;2022-11-20T05:09:27;56.47;;;27.60;;
22490;SDS011;11412;50.802;4.350;2022-11-20T05:11:53;52.83;;;26.70;;
22490;SDS011;11412;50.802;4.350;2022-11-20T05:14:19;59.08;;;27.85;;
22490;SDS011;11412;50.802;4.350;2022-11-20T05:16:44;58.25;;;28.17;;
22490;SDS011;11412;50.802;4.350;2022-11-20T05:19:10;53.40;;;26.20;;
22490;SDS011;11412;50.802;4.350;2022-11-20T05:21:35;57.83;;;27.25;;
22490;SDS011;11412;50.802;4.350;2022-11-20T05:24:01;56.95;;;27.38;;
22490;SDS011;11412;50.802;4.350;2022-11-20T05:26:27;60.20;;;26.58;;
22490;SDS011;11412;50.802;4.350;2022-11-20T05:28:52;56.80;;;27.63;;
22490;SDS011;11412;50.802;4.350;2022-11-20T05:31:19;57.78;;;27.00;;
22490;SDS011;11412;50.802;4.350;2022-11-20T05:33:46;60.83;;;28.42;;
22490;SDS011;11412;50.802;4.350;2022-11-20T05:36:13;58.38;;;27.45;;
22490;SDS011;11412;50.802;4.350;2022-11-20T05:38:40;61.05;;;28.27;;
22490;SDS011;11412;50.802;4.350;2022-11-20T05:41:10;56.08;;;28.05;;
22490;SDS011;11412;50.802;4.350;2022-11-20T05:43:40;60.28;;;28.55;;
22490;SDS011;11412;50.802;4.350;2022-11-20T05:46:08;62.13;;;27.92;;
22490;SDS011;11412;50.802;4.350;2022-11-20T05:48:35;66.63;;;29.40;;
22490;SDS011;11412;50.802;4.350;2022-11-20T05:51:02;61.90;;;28.77;;
22490;SDS011;11412;50.802;4.350;2022-11-20T05:53:30;60.03;;;27.27;;
22490;SDS011;11412;50.802;4.350;2022-11-20T05:56:01;60.70;;;26.90;;
22490;SDS011;11412;50.802;4.350;2022-11-20T06:01:08;68.68;;;30.05;;
22490;SDS011;11412;50.802;4.350;2022-11-20T06:03:39;59.88;;;27.23;;
22490;SDS011;11412;50.802;4.350;2022-11-20T06:06:07;66.78;;;28.88;;
22490;SDS011;11412;50.802;4.350;2022-11-20T06:08:33;64.50;;;28.20;;
22490;SDS011;11412;50.802;4.350;2022-11-20T06:11:02;67.95;;;29.23;;
22490;SDS011;11412;50.802;4.350;2022-11-20T06:13:29;68.53;;;28.95;;
22490;SDS011;11412;50.802;4.350;2022-11-20T06:15:55;65.50;;;27.83;;
22490;SDS011;11412;50.802;4.350;2022-11-20T06:18:20;69.97;;;30.52;;
22490;SDS011;11412;50.802;4.350;2022-11-20T06:20:46;65.85;;;28.80;;
22490;SDS011;11412;50.802;4.350;2022-11-20T06:23:12;68.10;;;28.38;;
22490;SDS011;11412;50.802;4.350;2022-11-20T06:25:38;63.10;;;28.20;;
22490;SDS011;11412;50.802;4.350;2022-11-20T06:28:05;58.42;;;26.83;;
22490;SDS011;11412;50.802;4.350;2022-11-20T06:30:31;63.90;;;28.90;;
22490;SDS011;11412;50.802;4.350;2022-11-20T06:32:56;59.20;;;27.45;;
22490;SDS011;11412;50.802;4.350;2022-11-20T06:35:22;57.35;;;27.58;;
22490;SDS011;11412;50.802;4.350;2022-11-20T06:37:48;58.33;;;26.27;;
22490;SDS011;11412;50.802;4.350;2022-11-20T06:40:13;61.95;;;26.75;;
22490;SDS011;11412;50.802;4.350;2022-11-20T06:42:39;55.83;;;25.60;;
22490;SDS011;11412;50.802;4.350;2022-11-20T06:45:04;59.38;;;27.85;;
22490;SDS011;11412;50.802;4.350;2022-11-20T06:47:30;57.72;;;27.98;;
22490;SDS011;11412;50.802;4.350;2022-11-20T06:49:56;60.88;;;27.33;;
22490;SDS011;11412;50.802;4.350;2022-11-20T06:52:22;56.55;;;26.73;;
22490;SDS011;11412;50.802;4.350;2022-11-20T06:54:47;56.88;;;25.85;;
22490;SDS011;11412;50.802;4.350;2022-11-20T06:57:13;57.78;;;26.27;;
22490;SDS011;11412;50.802;4.350;2022-11-20T06:59:38;60.33;;;26.42;;
22490;SDS011;11412;50.802;4.350;2022-11-20T07:02:04;54.08;;;25.38;;
22490;SDS011;11412;50.802;4.350;2022-11-20T07:04:30;60.65;;;27.02;;
22490;SDS011;11412;50.802;4.350;2022-11-20T07:06:55;54.47;;;26.70;;
22490;SDS011;11412;50.802;4.350;2022-11-20T07:09:21;56.75;;;27.85;;
22490;SDS011;11412;50.802;4.350;2022-11-20T07:11:46;54.70;;;25.00;;
22490;SDS011;11412;50.802;4.350;2022-11-20T07:14:12;53.33;;;25.42;;
22490;SDS011;11412;50.802;4.350;2022-11-20T07:16:38;49.47;;;24.55;;
22490;SDS011;11412;50.802;4.350;2022-11-20T07:19:03;49.88;;;25.45;;
22490;SDS011;11412;50.802;4.350;2022-11-20T07:21:29;45.25;;;23.83;;
22490;SDS011;11412;50.802;4.350;2022-11-20T07:23:54;49.75;;;24.40;;
22490;SDS011;11412;50.802;4.350;2022-11-20T07:26:20;51.92;;;24.85;;
22490;SDS011;11412;50.802;4.350;2022-11-20T07:28:46;50.08;;;23.73;;
22490;SDS011;11412;50.802;4.350;2022-11-20T07:31:12;50.72;;;24.50;;
22490;SDS011;11412;50.802;4.350;2022-11-20T07:33:38;51.47;;;24.63;;
22490;SDS011;11412;50.802;4.350;2022-11-20T07:36:03;56.92;;;24.77;;
22490;SDS011;11412;50.802;4.350;2022-11-20T07:38:29;64.35;;;25.77;;
22490;SDS011;11412;50.802;4.350;2022-11-20T07:40:58;56.97;;;24.30;;
22490;SDS011;11412;50.802;4.350;2022-11-20T07:43:26;57.08;;;25.88;;
22490;SDS011;11412;50.802;4.350;2022-11-20T07:45:54;50.80;;;24.13;;
22490;SDS011;11412;50.802;4.350;2022-11-20T07:48:22;55.25;;;24.75;;
22490;SDS011;11412;50.802;4.350;2022-11-20T07:50:48;51.83;;;24.67;;
22490;SDS011;11412;50.802;4.350;2022-11-20T07:53:14;52.65;;;24.50;;
22490;SDS011;11412;50.802;4.350;2022-11-20T07:55:45;53.88;;;24.30;;
22490;SDS011;11412;50.802;4.350;2022-11-20T07:58:11;48.75;;;23.88;;
22490;SDS011;11412;50.802;4.350;2022-11-20T08:00:37;56.42;;;26.15;;
22490;SDS011;11412;50.802;4.350;2022-11-20T08:03:03;56.55;;;24.85;;
22490;SDS011;11412;50.802;4.350;2022-11-20T08:05:29;46.60;;;23.67;;
22490;SDS011;11412;50.802;4.350;2022-11-20T08:07:55;53.20;;;24.58;;
22490;SDS011;11412;50.802;4.350;2022-11-20T08:10:21;56.63;;;24.95;;
22490;SDS011;11412;50.802;4.350;2022-11-20T08:12:47;51.80;;;23.92;;
22490;SDS011;11412;50.802;4.350;2022-11-20T08:15:32;49.95;;;23.55;;
22490;SDS011;11412;50.802;4.350;2022-11-20T08:18:02;49.80;;;23.88;;
22490;SDS011;11412;50.802;4.350;2022-11-20T08:20:30;48.75;;;23.73;;
22490;SDS011;11412;50.802;4.350;2022-11-20T08:23:03;49.70;;;24.13;;
22490;SDS011;11412;50.802;4.350;2022-11-20T08:25:30;53.45;;;23.23;;
22490;SDS011;11412;50.802;4.350;2022-11-20T08:28:00;48.95;;;23.73;;
22490;SDS011;11412;50.802;4.350;2022-11-20T08:30:27;58.65;;;25.08;;
22490;SDS011;11412;50.802;4.350;2022-11-20T08:32:53;57.55;;;24.55;;
22490;SDS011;11412;50.802;4.350;2022-11-20T08:35:19;53.50;;;23.67;;
22490;SDS011;11412;50.802;4.350;2022-11-20T08:37:48;49.72;;;23.13;;
22490;SDS011;11412;50.802;4.350;2022-11-20T08:40:14;56.47;;;25.25;;
22490;SDS011;11412;50.802;4.350;2022-11-20T08:42:50;56.75;;;24.58;;
22490;SDS011;11412;50.802;4.350;2022-11-20T08:45:16;53.17;;;23.33;;
22490;SDS011;11412;50.802;4.350;2022-11-20T08:47:43;57.15;;;22.70;;
22490;SDS011;11412;50.802;4.350;2022-11-20T08:50:10;45.80;;;22.27;;
22490;SDS011;11412;50.802;4.350;2022-11-20T08:52:36;52.05;;;23.00;;
22490;SDS011;11412;50.802;4.350;2022-11-20T08:55:02;53.63;;;22.65;;
22490;SDS011;11412;50.802;4.350;2022-11-20T08:57:31;51.33;;;22.92;;
22490;SDS011;11412;50.802;4.350;2022-11-20T08:59:57;50.83;;;22.55;;
22490;SDS011;11412;50.802;4.350;2022-11-20T09:02:23;47.67;;;23.00;;
22490;SDS011;11412;50.802;4.350;2022-11-20T09:04:49;47.80;;;22.65;;
22490;SDS011;11412;50.802;4.350;2022-11-20T09:07:15;55.47;;;23.02;;
22490;SDS011;11412;50.802;4.350;2022-11-20T09:09:40;48.40;;;22.60;;
22490;SDS011;11412;50.802;4.350;2022-11-20T09:12:06;41.60;;;22.02;;
22490;SDS011;11412;50.802;4.350;2022-11-20T09:14:31;45.65;;;21.85;;
22490;SDS011;11412;50.802;4.350;2022-11-20T09:16:58;42.53;;;21.63;;
22490;SDS011;11412;50.802;4.350;2022-11-20T09:19:24;40.42;;;22.38;;
22490;SDS011;11412;50.802;4.350;2022-11-20T09:21:50;38.85;;;20.70;;
22490;SDS011;11412;50.802;4.350;2022-11-20T09:24:16;42.80;;;21.55;;
22490;SDS011;11412;50.802;4.350;2022-11-20T09:26:42;36.38;;;19.02;;
22490;SDS011;11412;50.802;4.350;2022-11-20T09:29:08;35.13;;;18.77;;
22490;SDS011;11412;50.802;4.350;2022-11-20T09:31:33;42.75;;;19.90;;
22490;SDS011;11412;50.802;4.350;2022-11-20T09:33:59;39.72;;;18.92;;
22490;SDS011;11412;50.802;4.350;2022-11-20T09:36:25;36.30;;;18.92;;
22490;SDS011;11412;50.802;4.350;2022-11-20T09:38:51;31.63;;;16.67;;
22490;SDS011;11412;50.802;4.350;2022-11-20T09:41:36;29.85;;;17.60;;
22490;SDS011;11412;50.802;4.350;2022-11-20T09:47:07;27.92;;;15.75;;
22490;SDS011;11412;50.802;4.350;2022-11-20T09:55:10;25.48;;;12.63;;
22490;SDS011;11412;50.802;4.350;2022-11-20T09:57:39;21.25;;;12.73;;
22490;SDS011;11412;50.802;4.350;2022-11-20T10:00:12;18.45;;;11.48;;
22490;SDS011;11412;50.802;4.350;2022-11-20T10:02:44;21.23;;;12.43;;
22490;SDS011;11412;50.802;4.350;2022-11-20T10:11:00;18.83;;;10.52;;
22490;SDS011;11412;50.802;4.350;2022-11-20T10:16:09;13.95;;;9.35;;
22490;SDS011;11412;50.802;4.350;2022-11-20T10:24:34;15.35;;;8.55;;
22490;SDS011;11412;50.802;4.350;2022-11-20T10:29:47;14.65;;;8.32;;
22490;SDS011;11412;50.802;4.350;2022-11-20T10:32:43;12.55;;;7.78;;
22490;SDS011;11412;50.802;4.350;2022-11-20T10:38:00;10.13;;;6.25;;
22490;SDS011;11412;50.802;4.350;2022-11-20T10:43:03;11.13;;;5.63;;
22490;SDS011;11412;50.802;4.350;2022-11-20T10:48:24;9.32;;;4.50;;
22490;SDS011;11412;50.802;4.350;2022-11-20T10:50:57;7.72;;;3.95;;
22490;SDS011;11412;50.802;4.350;2022-11-20T10:56:31;9.05;;;4.00;;
22490;SDS011;11412;50.802;4.350;2022-11-20T11:02:39;4.43;;;3.70;;
22490;SDS011;11412;50.802;4.350;2022-11-20T11:07:46;6.22;;;3.63;;
22490;SDS011;11412;50.802;4.350;2022-11-20T11:10:21;10.35;;;3.58;;
22490;SDS011;11412;50.802;4.350;2022-11-20T11:12:57;6.88;;;3.53;;
22490;SDS011;11412;50.802;4.350;2022-11-20T11:15:27;7.70;;;3.75;;
22490;SDS011;11412;50.802;4.350;2022-11-20T11:18:04;7.60;;;3.33;;
22490;SDS011;11412;50.802;4.350;2022-11-20T11:20:30;7.65;;;3.08;;
22490;SDS011;11412;50.802;4.350;2022-11-20T11:22:57;8.27;;;3.35;;
22490;SDS011;11412;50.802;4.350;2022-11-20T11:25:28;6.25;;;3.15;;
22490;SDS011;11412;50.802;4.350;2022-11-20T11:27:56;5.47;;;2.83;;
22490;SDS011;11412;50.802;4.350;2022-11-20T11:30:24;5.38;;;2.88;;
22490;SDS011;11412;50.802;4.350;2022-11-20T11:33:01;4.95;;;2.53;;
22490;SDS011;11412;50.802;4.350;2022-11-20T11:35:29;9.32;;;2.90;;
22490;SDS011;11412;50.802;4.350;2022-11-20T11:38:01;6.18;;;3.05;;
22490;SDS011;11412;50.802;4.350;2022-11-20T11:40:30;7.03;;;3.35;;
22490;SDS011;11412;50.802;4.350;2022-11-20T11:43:03;3.75;;;2.60;;
22490;SDS011;11412;50.802;4.350;2022-11-20T11:45:54;5.13;;;2.92;;
22490;SDS011;11412;50.802;4.350;2022-11-20T11:48:20;8.98;;;3.03;;
22490;SDS011;11412;50.802;4.350;2022-11-20T11:50:50;9.95;;;2.58;;
22490;SDS011;11412;50.802;4.350;2022-11-20T11:53:17;6.28;;;2.70;;
22490;SDS011;11412;50.802;4.350;2022-11-20T11:58:30;7.57;;;2.38;;
22490;SDS011;11412;50.802;4.350;2022-11-20T12:07:30;6.82;;;3.10;;
22490;SDS011;11412;50.802;4.350;2022-11-20T12:10:14;11.57;;;2.90;;
22490;SDS011;11412;50.802;4.350;2022-11-20T12:12:44;5.47;;;2.30;;
22490;SDS011;11412;50.802;4.350;2022-11-20T12:15:12;5.22;;;2.55;;
22490;SDS011;11412;50.802;4.350;2022-11-20T12:17:50;9.02;;;2.40;;
22490;SDS011;11412;50.802;4.350;2022-11-20T12:20:16;6.68;;;2.83;;
22490;SDS011;11412;50.802;4.350;2022-11-20T12:22:54;7.03;;;2.83;;
22490;SDS011;11412;50.802;4.350;2022-11-20T12:25:31;3.63;;;2.60;;
22490;SDS011;11412;50.802;4.350;2022-11-20T12:30:42;4.15;;;2.63;;
22490;SDS011;11412;50.802;4.350;2022-11-20T12:39:07;6.38;;;2.80;;
22490;SDS011;11412;50.802;4.350;2022-11-20T12:42:11;11.95;;;2.60;;
22490;SDS011;11412;50.802;4.350;2022-11-20T12:56:21;5.80;;;2.70;;
22490;SDS011;11412;50.802;4.350;2022-11-20T13:02:01;5.13;;;2.90;;
22490;SDS011;11412;50.802;4.350;2022-11-20T13:04:49;7.28;;;2.58;;
22490;SDS011;11412;50.802;4.350;2022-11-20T13:07:35;4.72;;;3.20;;
22490;SDS011;11412;50.802;4.350;2022-11-20T13:10:01;3.30;;;2.83;;
22490;SDS011;11412;50.802;4.350;2022-11-20T13:12:43;8.95;;;3.38;;
22490;SDS011;11412;50.802;4.350;2022-11-20T13:18:08;9.88;;;6.00;;
22490;SDS011;11412;50.802;4.350;2022-11-20T13:20:35;5.47;;;2.85;;
22490;SDS011;11412;50.802;4.350;2022-11-20T13:23:06;5.32;;;2.58;;
22490;SDS011;11412;50.802;4.350;2022-11-20T13:25:35;8.65;;;3.55;;
22490;SDS011;11412;50.802;4.350;2022-11-20T13:30:34;7.35;;;3.00;;
22490;SDS011;11412;50.802;4.350;2022-11-20T13:33:09;6.22;;;3.85;;
22490;SDS011;11412;50.802;4.350;2022-11-20T13:36:00;10.80;;;5.43;;
22490;SDS011;11412;50.802;4.350;2022-11-20T13:38:47;5.13;;;3.13;;
22490;SDS011;11412;50.802;4.350;2022-11-20T13:41:24;5.97;;;5.18;;
22490;SDS011;11412;50.802;4.350;2022-11-20T13:43:53;4.25;;;3.13;;
22490;SDS011;11412;50.802;4.350;2022-11-20T13:46:23;5.05;;;3.42;;
22490;SDS011;11412;50.802;4.350;2022-11-20T13:48:50;4.47;;;3.30;;
22490;SDS011;11412;50.802;4.350;2022-11-20T13:54:22;3.03;;;2.00;;
22490;SDS011;11412;50.802;4.350;2022-11-20T13:57:26;4.85;;;2.80;;
22490;SDS011;11412;50.802;4.350;2022-11-20T14:00:17;3.53;;;2.35;;
22490;SDS011;11412;50.802;4.350;2022-11-20T14:05:31;4.32;;;2.88;;
22490;SDS011;11412;50.802;4.350;2022-11-20T14:08:04;3.63;;;2.72;;
22490;SDS011;11412;50.802;4.350;2022-11-20T14:10:34;3.90;;;2.45;;
22490;SDS011;11412;50.802;4.350;2022-11-20T14:13:09;2.83;;;2.50;;
22490;SDS011;11412;50.802;4.350;2022-11-20T14:15:40;2.83;;;2.33;;
22490;SDS011;11412;50.802;4.350;2022-11-20T14:18:11;4.32;;;2.50;;
22490;SDS011;11412;50.802;4.350;2022-11-20T14:20:44;5.13;;;2.67;;
22490;SDS011;11412;50.802;4.350;2022-11-20T14:23:11;2.75;;;2.50;;
22490;SDS011;11412;50.802;4.350;2022-11-20T14:25:37;2.78;;;1.92;;
22490;SDS011;11412;50.802;4.350;2022-11-20T14:28:10;2.67;;;2.47;;
22490;SDS011;11412;50.802;4.350;2022-11-20T14:30:44;2.63;;;2.13;;
22490;SDS011;11412;50.802;4.350;2022-11-20T14:33:13;2.95;;;2.35;;
22490;SDS011;11412;50.802;4.350;2022-11-20T14:35:50;2.72;;;2.53;;
22490;SDS011;11412;50.802;4.350;2022-11-20T14:38:18;4.07;;;2.35;;
22490;SDS011;11412;50.802;4.350;2022-11-20T14:40:47;4.10;;;2.15;;
22490;SDS011;11412;50.802;4.350;2022-11-20T14:45:50;5.13;;;3.67;;
22490;SDS011;11412;50.802;4.350;2022-11-20T14:48:32;2.80;;;2.50;;
22490;SDS011;11412;50.802;4.350;2022-11-20T14:51:04;4.43;;;3.00;;
22490;SDS011;11412;50.802;4.350;2022-11-20T14:53:30;4.32;;;2.80;;
22490;SDS011;11412;50.802;4.350;2022-11-20T14:55:57;4.82;;;3.63;;
22490;SDS011;11412;50.802;4.350;2022-11-20T14:58:25;4.35;;;3.10;;
22490;SDS011;11412;50.802;4.350;2022-11-20T15:01:03;4.28;;;2.45;;
22490;SDS011;11412;50.802;4.350;2022-11-20T15:03:34;3.78;;;2.72;;
22490;SDS011;11412;50.802;4.350;2022-11-20T15:06:01;4.97;;;2.88;;
22490;SDS011;11412;50.802;4.350;2022-11-20T15:08:27;7.10;;;4.10;;
22490;SDS011;11412;50.802;4.350;2022-11-20T15:10:53;3.17;;;2.88;;
22490;SDS011;11412;50.802;4.350;2022-11-20T15:13:24;5.35;;;3.53;;
22490;SDS011;11412;50.802;4.350;2022-11-20T15:16:01;3.25;;;2.38;;
22490;SDS011;11412;50.802;4.350;2022-11-20T15:18:32;4.55;;;2.50;;
22490;SDS011;11412;50.802;4.350;2022-11-20T15:21:03;5.75;;;2.45;;
22490;SDS011;11412;50.802;4.350;2022-11-20T15:23:35;3.33;;;3.00;;
22490;SDS011;11412;50.802;4.350;2022-11-20T15:26:01;5.90;;;2.72;;
22490;SDS011;11412;50.802;4.350;2022-11-20T15:28:33;7.65;;;4.85;;
22490;SDS011;11412;50.802;4.350;2022-11-20T15:31:02;5.20;;;2.58;;
22490;SDS011;11412;50.802;4.350;2022-11-20T15:33:29;2.90;;;2.00;;
22490;SDS011;11412;50.802;4.350;2022-11-20T15:35:55;6.15;;;2.40;;
22490;SDS011;11412;50.802;4.350;2022-11-20T15:38:20;4.70;;;3.00;;
22490;SDS011;11412;50.802;4.350;2022-11-20T15:40:46;6.47;;;4.53;;
22490;SDS011;11412;50.802;4.350;2022-11-20T15:43:12;10.50;;;6.75;;
22490;SDS011;11412;50.802;4.350;2022-11-20T15:45:38;7.53;;;4.40;;
22490;SDS011;11412;50.802;4.350;2022-11-20T15:48:13;11.70;;;6.80;;
22490;SDS011;11412;50.802;4.350;2022-11-20T15:50:59;5.97;;;3.35;;
22490;SDS011;11412;50.802;4.350;2022-11-20T15:53:27;5.20;;;3.20;;
22490;SDS011;11412;50.802;4.350;2022-11-20T15:55:52;7.25;;;3.13;;
22490;SDS011;11412;50.802;4.350;2022-11-20T15:58:18;9.10;;;3.35;;
22490;SDS011;11412;50.802;4.350;2022-11-20T16:00:44;4.55;;;2.83;;
22490;SDS011;11412;50.802;4.350;2022-11-20T16:03:11;4.60;;;3.15;;
22490;SDS011;11412;50.802;4.350;2022-11-20T16:05:37;10.15;;;3.92;;
22490;SDS011;11412;50.802;4.350;2022-11-20T16:08:03;10.20;;;4.43;;
22490;SDS011;11412;50.802;4.350;2022-11-20T16:10:29;8.32;;;4.07;;
22490;SDS011;11412;50.802;4.350;2022-11-20T16:12:55;7.20;;;3.17;;
22490;SDS011;11412;50.802;4.350;2022-11-20T16:15:39;12.18;;;3.67;;
22490;SDS011;11412;50.802;4.350;2022-11-20T16:18:12;13.02;;;3.63;;
22490;SDS011;11412;50.802;4.350;2022-11-20T16:20:42;11.65;;;3.35;;
22490;SDS011;11412;50.802;4.350;2022-11-20T16:23:08;13.20;;;3.80;;
22490;SDS011;11412;50.802;4.350;2022-11-20T16:25:34;11.57;;;3.90;;